sensor_id;sensor_type;location;lat;lon;timestamp;pressure;altitude;pressure_sealevel;temperature;humidity
64711;BME280;51139;45.626;6.850;2023-02-22T00:02:16;81856.19;;;4.78;49.03
64711;BME280;51139;45.626;6.850;2023-02-22T00:04:52;81848.84;;;4.85;49.07
64711;BME280;51139;45.626;6.850;2023-02-22T00:07:18;81852.28;;;4.72;49.45
64711;BME280;51139;45.626;6.850;2023-02-22T00:09:45;81849.53;;;4.77;49.13
64711;BME280;51139;45.626;6.850;2023-02-22T00:12:11;81849.50;;;4.62;49.55
64711;BME280;51139;45.626;6.850;2023-02-22T00:14:36;81845.44;;;4.53;50.34
64711;BME280;51139;45.626;6.850;2023-02-22T00:17:02;81852.63;;;4.52;50.07
64711;BME280;51139;45.626;6.850;2023-02-22T00:19:27;81853.63;;;4.42;50.62
64711;BME280;51139;45.626;6.850;2023-02-22T00:21:55;81849.19;;;4.29;50.70
64711;BME280;51139;45.626;6.850;2023-02-22T00:24:23;81851.25;;;4.15;51.57
64711;BME280;51139;45.626;6.850;2023-02-22T00:26:53;81849.97;;;4.08;51.73
64711;BME280;51139;45.626;6.850;2023-02-22T00:29:22;81848.56;;;4.07;52.00
64711;BME280;51139;45.626;6.850;2023-02-22T00:31:48;81849.09;;;4.05;51.71
64711;BME280;51139;45.626;6.850;2023-02-22T00:34:14;81846.44;;;3.98;51.37
64711;BME280;51139;45.626;6.850;2023-02-22T00:36:45;81847.78;;;3.91;52.25
64711;BME280;51139;45.626;6.850;2023-02-22T00:39:10;81845.19;;;3.91;52.44
64711;BME280;51139;45.626;6.850;2023-02-22T00:41:36;81843.50;;;4.01;52.04
64711;BME280;51139;45.626;6.850;2023-02-22T00:44:02;81846.50;;;4.05;52.24
64711;BME280;51139;45.626;6.850;2023-02-22T00:46:27;81838.09;;;4.07;51.41
64711;BME280;51139;45.626;6.850;2023-02-22T00:48:52;81838.63;;;4.13;51.55
64711;BME280;51139;45.626;6.850;2023-02-22T00:51:19;81835.66;;;4.09;51.61
64711;BME280;51139;45.626;6.850;2023-02-22T00:53:44;81836.00;;;4.05;51.59
64711;BME280;51139;45.626;6.850;2023-02-22T00:56:09;81830.59;;;4.11;51.60
64711;BME280;51139;45.626;6.850;2023-02-22T00:58:35;81826.44;;;4.23;51.82
64711;BME280;51139;45.626;6.850;2023-02-22T01:01:01;81826.97;;;4.22;51.78
64711;BME280;51139;45.626;6.850;2023-02-22T01:03:26;81829.59;;;4.22;50.99
64711;BME280;51139;45.626;6.850;2023-02-22T01:05:51;81825.22;;;4.17;51.10
64711;BME280;51139;45.626;6.850;2023-02-22T01:08:17;81824.97;;;4.07;51.67
64711;BME280;51139;45.626;6.850;2023-02-22T01:10:43;81828.00;;;4.19;51.75
64711;BME280;51139;45.626;6.850;2023-02-22T01:13:10;81821.69;;;4.06;51.99
64711;BME280;51139;45.626;6.850;2023-02-22T01:15:39;81827.97;;;4.03;52.09
64711;BME280;51139;45.626;6.850;2023-02-22T01:18:05;81826.81;;;3.91;52.85
64711;BME280;51139;45.626;6.850;2023-02-22T01:20:31;81828.91;;;3.85;52.39
64711;BME280;51139;45.626;6.850;2023-02-22T01:22:58;81818.22;;;3.83;52.66
64711;BME280;51139;45.626;6.850;2023-02-22T01:25:27;81810.75;;;3.87;52.15
64711;BME280;51139;45.626;6.850;2023-02-22T01:27:53;81814.84;;;4.03;52.11
64711;BME280;51139;45.626;6.850;2023-02-22T01:30:21;81815.91;;;4.08;51.36
64711;BME280;51139;45.626;6.850;2023-02-22T01:32:47;81809.59;;;4.03;51.87
64711;BME280;51139;45.626;6.850;2023-02-22T01:35:18;81808.03;;;4.00;51.59
64711;BME280;51139;45.626;6.850;2023-02-22T01:37:44;81806.91;;;3.88;52.34
64711;BME280;51139;45.626;6.850;2023-02-22T01:40:16;81805.50;;;3.87;52.82
64711;BME280;51139;45.626;6.850;2023-02-22T01:42:43;81803.66;;;4.03;52.29
64711;BME280;51139;45.626;6.850;2023-02-22T01:48:03;81792.31;;;4.00;52.05
64711;BME280;51139;45.626;6.850;2023-02-22T01:50:33;81787.25;;;4.02;51.95
64711;BME280;51139;45.626;6.850;2023-02-22T01:53:00;81799.75;;;4.41;50.88
64711;BME280;51139;45.626;6.850;2023-02-22T01:55:26;81794.06;;;4.05;51.44
64711;BME280;51139;45.626;6.850;2023-02-22T01:57:52;81790.72;;;4.05;51.35
64711;BME280;51139;45.626;6.850;2023-02-22T02:00:19;81798.91;;;3.93;51.29
64711;BME280;51139;45.626;6.850;2023-02-22T02:02:49;81790.19;;;3.99;50.94
64711;BME280;51139;45.626;6.850;2023-02-22T02:05:18;81784.63;;;4.02;50.34
64711;BME280;51139;45.626;6.850;2023-02-22T02:07:43;81780.81;;;4.19;49.73
64711;BME280;51139;45.626;6.850;2023-02-22T02:10:13;81781.00;;;4.29;49.58
64711;BME280;51139;45.626;6.850;2023-02-22T02:12:43;81776.81;;;4.26;49.58
64711;BME280;51139;45.626;6.850;2023-02-22T02:15:21;81776.63;;;4.23;49.47
64711;BME280;51139;45.626;6.850;2023-02-22T02:17:48;81777.44;;;4.03;50.26
64711;BME280;51139;45.626;6.850;2023-02-22T02:40:42;81759.28;;;3.24;53.92
64711;BME280;51139;45.626;6.850;2023-02-22T02:43:25;81761.34;;;3.17;54.30
64711;BME280;51139;45.626;6.850;2023-02-22T02:48:27;81752.53;;;3.07;54.37
64711;BME280;51139;45.626;6.850;2023-02-22T02:50:56;81752.72;;;3.09;54.24
64711;BME280;51139;45.626;6.850;2023-02-22T02:53:28;81759.41;;;3.18;54.18
64711;BME280;51139;45.626;6.850;2023-02-22T02:55:57;81746.88;;;3.24;53.73
64711;BME280;51139;45.626;6.850;2023-02-22T02:58:23;81744.97;;;3.25;53.74
64711;BME280;51139;45.626;6.850;2023-02-22T03:00:51;81740.66;;;3.35;53.59
64711;BME280;51139;45.626;6.850;2023-02-22T03:09:34;81745.72;;;3.33;53.16
64711;BME280;51139;45.626;6.850;2023-02-22T03:12:17;81739.38;;;3.28;53.65
64711;BME280;51139;45.626;6.850;2023-02-22T03:18:04;81745.63;;;3.17;53.71
64711;BME280;51139;45.626;6.850;2023-02-22T03:20:43;81742.84;;;3.23;53.76
64711;BME280;51139;45.626;6.850;2023-02-22T03:25:42;81746.84;;;3.16;54.04
64711;BME280;51139;45.626;6.850;2023-02-22T03:28:12;81743.31;;;3.14;54.11
64711;BME280;51139;45.626;6.850;2023-02-22T03:33:29;81743.25;;;3.06;53.54
64711;BME280;51139;45.626;6.850;2023-02-22T03:36:02;81731.97;;;3.11;53.33
64711;BME280;51139;45.626;6.850;2023-02-22T03:38:31;81734.00;;;3.05;52.61
64711;BME280;51139;45.626;6.850;2023-02-22T03:41:00;81740.53;;;3.12;52.92
64711;BME280;51139;45.626;6.850;2023-02-22T03:43:33;81733.59;;;3.22;51.61
64711;BME280;51139;45.626;6.850;2023-02-22T03:46:01;81728.22;;;3.28;51.63
64711;BME280;51139;45.626;6.850;2023-02-22T03:51:21;81735.38;;;3.27;51.29
64711;BME280;51139;45.626;6.850;2023-02-22T03:53:47;81732.75;;;3.27;50.88
64711;BME280;51139;45.626;6.850;2023-02-22T03:56:19;81732.06;;;3.27;51.59
64711;BME280;51139;45.626;6.850;2023-02-22T03:58:48;81731.13;;;3.16;51.75
64711;BME280;51139;45.626;6.850;2023-02-22T04:01:15;81731.50;;;3.20;51.75
64711;BME280;51139;45.626;6.850;2023-02-22T04:03:41;81731.44;;;3.13;51.73
64711;BME280;51139;45.626;6.850;2023-02-22T04:06:07;81731.03;;;3.01;51.73
64711;BME280;51139;45.626;6.850;2023-02-22T04:08:33;81721.63;;;3.05;52.02
64711;BME280;51139;45.626;6.850;2023-02-22T04:10:59;81719.81;;;3.21;51.75
64711;BME280;51139;45.626;6.850;2023-02-22T04:13:25;81721.88;;;3.15;51.64
64711;BME280;51139;45.626;6.850;2023-02-22T04:15:51;81719.63;;;3.19;51.55
64711;BME280;51139;45.626;6.850;2023-02-22T04:18:17;81720.56;;;3.01;52.01
64711;BME280;51139;45.626;6.850;2023-02-22T04:20:42;81725.75;;;2.93;52.55
64711;BME280;51139;45.626;6.850;2023-02-22T04:23:09;81727.25;;;3.10;52.08
64711;BME280;51139;45.626;6.850;2023-02-22T04:25:34;81725.34;;;3.10;52.25
64711;BME280;51139;45.626;6.850;2023-02-22T04:28:00;81722.66;;;3.31;51.30
64711;BME280;51139;45.626;6.850;2023-02-22T04:30:25;81721.41;;;3.25;51.25
64711;BME280;51139;45.626;6.850;2023-02-22T04:32:54;81720.25;;;3.04;52.13
64711;BME280;51139;45.626;6.850;2023-02-22T04:35:19;81717.94;;;3.01;52.40
64711;BME280;51139;45.626;6.850;2023-02-22T04:37:45;81726.59;;;3.17;51.71
64711;BME280;51139;45.626;6.850;2023-02-22T04:40:10;81727.50;;;3.19;52.13
64711;BME280;51139;45.626;6.850;2023-02-22T04:42:36;81722.94;;;3.20;51.54
64711;BME280;51139;45.626;6.850;2023-02-22T04:45:03;81718.97;;;3.27;51.80
64711;BME280;51139;45.626;6.850;2023-02-22T04:47:28;81720.66;;;3.16;51.44
64711;BME280;51139;45.626;6.850;2023-02-22T04:49:54;81716.97;;;3.12;52.04
64711;BME280;51139;45.626;6.850;2023-02-22T04:52:20;81725.03;;;2.92;52.72
64711;BME280;51139;45.626;6.850;2023-02-22T04:54:45;81719.44;;;2.88;52.84
64711;BME280;51139;45.626;6.850;2023-02-22T04:57:11;81711.00;;;2.74;53.37
64711;BME280;51139;45.626;6.850;2023-02-22T04:59:36;81715.50;;;2.74;53.96
64711;BME280;51139;45.626;6.850;2023-02-22T05:02:02;81711.00;;;2.74;53.78
64711;BME280;51139;45.626;6.850;2023-02-22T05:04:27;81714.69;;;2.79;53.35
64711;BME280;51139;45.626;6.850;2023-02-22T05:06:53;81712.16;;;3.24;52.39
64711;BME280;51139;45.626;6.850;2023-02-22T05:09:19;81718.03;;;3.53;50.68
64711;BME280;51139;45.626;6.850;2023-02-22T05:11:44;81708.75;;;3.08;52.05
64711;BME280;51139;45.626;6.850;2023-02-22T05:14:10;81701.97;;;2.83;52.63
64711;BME280;51139;45.626;6.850;2023-02-22T05:16:36;81705.22;;;2.76;52.71
64711;BME280;51139;45.626;6.850;2023-02-22T05:19:01;81707.22;;;2.62;54.06
64711;BME280;51139;45.626;6.850;2023-02-22T05:21:27;81711.13;;;2.69;53.74
64711;BME280;51139;45.626;6.850;2023-02-22T05:23:52;81710.09;;;2.72;53.31
64711;BME280;51139;45.626;6.850;2023-02-22T05:26:18;81717.81;;;2.77;53.52
64711;BME280;51139;45.626;6.850;2023-02-22T05:28:43;81707.81;;;2.68;53.46
64711;BME280;51139;45.626;6.850;2023-02-22T05:31:09;81708.78;;;2.57;53.89
64711;BME280;51139;45.626;6.850;2023-02-22T05:33:34;81710.19;;;2.58;53.72
64711;BME280;51139;45.626;6.850;2023-02-22T05:36:00;81711.31;;;2.71;52.54
64711;BME280;51139;45.626;6.850;2023-02-22T05:38:25;81707.75;;;2.60;53.37
64711;BME280;51139;45.626;6.850;2023-02-22T05:40:51;81700.28;;;2.65;52.29
64711;BME280;51139;45.626;6.850;2023-02-22T05:43:16;81702.97;;;2.72;51.51
64711;BME280;51139;45.626;6.850;2023-02-22T05:45:42;81689.69;;;2.70;50.96
64711;BME280;51139;45.626;6.850;2023-02-22T05:48:07;81694.03;;;2.68;50.15
64711;BME280;51139;45.626;6.850;2023-02-22T05:50:33;81694.94;;;2.70;49.51
64711;BME280;51139;45.626;6.850;2023-02-22T05:52:58;81690.09;;;2.53;49.86
64711;BME280;51139;45.626;6.850;2023-02-22T05:55:24;81694.03;;;2.68;50.05
64711;BME280;51139;45.626;6.850;2023-02-22T05:57:50;81692.16;;;2.76;49.67
64711;BME280;51139;45.626;6.850;2023-02-22T06:00:26;81688.84;;;2.75;49.58
64711;BME280;51139;45.626;6.850;2023-02-22T06:03:01;81688.38;;;2.85;48.97
64711;BME280;51139;45.626;6.850;2023-02-22T06:05:28;81692.81;;;2.69;49.62
64711;BME280;51139;45.626;6.850;2023-02-22T06:07:53;81688.53;;;2.58;50.52
64711;BME280;51139;45.626;6.850;2023-02-22T06:10:19;81688.22;;;2.61;50.93
64711;BME280;51139;45.626;6.850;2023-02-22T06:12:46;81679.59;;;2.74;51.30
64711;BME280;51139;45.626;6.850;2023-02-22T06:15:13;81686.13;;;2.89;51.37
64711;BME280;51139;45.626;6.850;2023-02-22T06:17:39;81685.06;;;2.84;51.93
64711;BME280;51139;45.626;6.850;2023-02-22T06:20:10;81683.81;;;2.77;51.82
64711;BME280;51139;45.626;6.850;2023-02-22T06:22:36;81681.41;;;2.87;51.01
64711;BME280;51139;45.626;6.850;2023-02-22T06:25:03;81680.66;;;2.79;51.43
64711;BME280;51139;45.626;6.850;2023-02-22T06:27:32;81687.22;;;2.65;51.12
64711;BME280;51139;45.626;6.850;2023-02-22T06:29:59;81679.53;;;2.67;52.13
64711;BME280;51139;45.626;6.850;2023-02-22T06:32:24;81675.41;;;2.71;52.58
64711;BME280;51139;45.626;6.850;2023-02-22T06:34:50;81677.91;;;2.85;52.51
64711;BME280;51139;45.626;6.850;2023-02-22T06:37:15;81671.28;;;2.84;52.66
64711;BME280;51139;45.626;6.850;2023-02-22T06:39:41;81673.84;;;2.76;53.88
64711;BME280;51139;45.626;6.850;2023-02-22T06:42:06;81675.31;;;2.85;53.46
64711;BME280;51139;45.626;6.850;2023-02-22T06:44:32;81679.03;;;2.97;52.95
64711;BME280;51139;45.626;6.850;2023-02-22T06:46:57;81685.25;;;2.86;52.46
64711;BME280;51139;45.626;6.850;2023-02-22T06:49:24;81684.59;;;2.94;52.51
64711;BME280;51139;45.626;6.850;2023-02-22T06:51:51;81681.09;;;2.91;52.02
64711;BME280;51139;45.626;6.850;2023-02-22T06:54:17;81686.09;;;3.18;51.78
64711;BME280;51139;45.626;6.850;2023-02-22T06:56:42;81678.63;;;3.22;51.33
64711;BME280;51139;45.626;6.850;2023-02-22T06:59:08;81689.16;;;3.30;50.70
64711;BME280;51139;45.626;6.850;2023-02-22T07:01:34;81680.00;;;3.15;50.21
64711;BME280;51139;45.626;6.850;2023-02-22T07:03:59;81680.09;;;3.02;51.18
64711;BME280;51139;45.626;6.850;2023-02-22T07:06:25;81680.75;;;2.95;51.50
64711;BME280;51139;45.626;6.850;2023-02-22T07:08:50;81673.88;;;3.13;51.00
64711;BME280;51139;45.626;6.850;2023-02-22T07:11:16;81682.66;;;3.23;50.45
64711;BME280;51139;45.626;6.850;2023-02-22T07:13:41;81681.28;;;3.30;49.75
64711;BME280;51139;45.626;6.850;2023-02-22T07:16:07;81692.69;;;3.48;49.50
64711;BME280;51139;45.626;6.850;2023-02-22T07:18:32;81686.69;;;3.69;49.05
64711;BME280;51139;45.626;6.850;2023-02-22T07:20:57;81693.94;;;4.07;46.11
64711;BME280;51139;45.626;6.850;2023-02-22T07:23:23;81696.41;;;4.20;45.65
64711;BME280;51139;45.626;6.850;2023-02-22T07:25:49;81690.66;;;4.22;45.61
64711;BME280;51139;45.626;6.850;2023-02-22T07:28:14;81685.59;;;4.94;43.95
64711;BME280;51139;45.626;6.850;2023-02-22T07:30:40;81692.72;;;5.24;43.42
64711;BME280;51139;45.626;6.850;2023-02-22T07:33:07;81689.97;;;4.84;46.05
64711;BME280;51139;45.626;6.850;2023-02-22T07:35:38;81694.00;;;4.61;46.42
64711;BME280;51139;45.626;6.850;2023-02-22T07:38:05;81691.34;;;5.00;45.62
64711;BME280;51139;45.626;6.850;2023-02-22T07:40:37;81691.59;;;5.66;42.29
64711;BME280;51139;45.626;6.850;2023-02-22T07:43:20;81683.81;;;5.84;38.30
64711;BME280;51139;45.626;6.850;2023-02-22T07:45:47;81682.72;;;6.36;37.26
64711;BME280;51139;45.626;6.850;2023-02-22T07:48:14;81685.47;;;6.46;37.86
64711;BME280;51139;45.626;6.850;2023-02-22T07:50:40;81680.22;;;6.71;36.17
64711;BME280;51139;45.626;6.850;2023-02-22T07:53:09;81674.50;;;7.33;34.98
64711;BME280;51139;45.626;6.850;2023-02-22T07:55:36;81683.81;;;7.87;33.20
64711;BME280;51139;45.626;6.850;2023-02-22T07:58:04;81677.69;;;7.67;34.51
64711;BME280;51139;45.626;6.850;2023-02-22T08:00:32;81676.13;;;7.81;33.67
64711;BME280;51139;45.626;6.850;2023-02-22T08:03:02;81669.81;;;6.81;34.78
64711;BME280;51139;45.626;6.850;2023-02-22T08:05:29;81670.72;;;7.62;34.74
64711;BME280;51139;45.626;6.850;2023-02-22T08:07:55;81670.06;;;8.06;32.63
64711;BME280;51139;45.626;6.850;2023-02-22T08:10:22;81666.53;;;7.58;34.58
64711;BME280;51139;45.626;6.850;2023-02-22T08:12:48;81662.88;;;6.93;33.65
64711;BME280;51139;45.626;6.850;2023-02-22T08:15:49;81667.47;;;7.53;33.86
64711;BME280;51139;45.626;6.850;2023-02-22T08:18:14;81667.53;;;7.81;35.79
64711;BME280;51139;45.626;6.850;2023-02-22T08:20:41;81662.50;;;7.75;35.91
64711;BME280;51139;45.626;6.850;2023-02-22T08:23:08;81662.38;;;8.18;37.72
64711;BME280;51139;45.626;6.850;2023-02-22T08:25:34;81665.47;;;8.24;36.85
64711;BME280;51139;45.626;6.850;2023-02-22T08:28:14;81672.56;;;8.49;36.51
64711;BME280;51139;45.626;6.850;2023-02-22T08:30:41;81670.03;;;8.69;33.74
64711;BME280;51139;45.626;6.850;2023-02-22T08:33:11;81672.00;;;8.78;36.97
64711;BME280;51139;45.626;6.850;2023-02-22T08:35:38;81670.09;;;8.79;37.88
64711;BME280;51139;45.626;6.850;2023-02-22T08:38:05;81665.25;;;9.32;34.25
64711;BME280;51139;45.626;6.850;2023-02-22T08:40:34;81662.09;;;8.96;36.02
64711;BME280;51139;45.626;6.850;2023-02-22T08:43:01;81665.59;;;8.71;36.58
64711;BME280;51139;45.626;6.850;2023-02-22T08:45:27;81671.97;;;8.68;35.42
64711;BME280;51139;45.626;6.850;2023-02-22T08:47:52;81667.78;;;8.93;35.33
64711;BME280;51139;45.626;6.850;2023-02-22T08:50:24;81669.53;;;9.84;34.06
64711;BME280;51139;45.626;6.850;2023-02-22T08:52:51;81671.63;;;9.96;33.47
64711;BME280;51139;45.626;6.850;2023-02-22T08:55:21;81670.09;;;9.83;35.64
64711;BME280;51139;45.626;6.850;2023-02-22T08:57:47;81681.72;;;9.50;39.08
64711;BME280;51139;45.626;6.850;2023-02-22T09:00:13;81672.31;;;9.86;35.41
64711;BME280;51139;45.626;6.850;2023-02-22T09:02:39;81680.56;;;10.30;35.33
64711;BME280;51139;45.626;6.850;2023-02-22T09:05:06;81681.94;;;10.11;32.22
64711;BME280;51139;45.626;6.850;2023-02-22T09:07:31;81682.69;;;9.55;33.61
64711;BME280;51139;45.626;6.850;2023-02-22T09:09:57;81681.81;;;10.29;32.92
64711;BME280;51139;45.626;6.850;2023-02-22T09:12:22;81679.88;;;10.19;33.34
64711;BME280;51139;45.626;6.850;2023-02-22T09:14:47;81681.38;;;10.52;32.90
64711;BME280;51139;45.626;6.850;2023-02-22T09:17:13;81673.03;;;10.65;32.67
64711;BME280;51139;45.626;6.850;2023-02-22T09:19:38;81674.91;;;9.57;35.54
64711;BME280;51139;45.626;6.850;2023-02-22T09:22:04;81682.25;;;8.64;40.91
64711;BME280;51139;45.626;6.850;2023-02-22T09:24:29;81689.47;;;8.64;40.78
64711;BME280;51139;45.626;6.850;2023-02-22T09:26:55;81683.88;;;8.87;41.45
64711;BME280;51139;45.626;6.850;2023-02-22T09:29:23;81689.53;;;8.73;43.16
64711;BME280;51139;45.626;6.850;2023-02-22T09:31:50;81692.94;;;8.94;42.09
64711;BME280;51139;45.626;6.850;2023-02-22T09:34:17;81682.94;;;9.29;41.30
64711;BME280;51139;45.626;6.850;2023-02-22T09:36:45;81694.28;;;9.12;41.66
64711;BME280;51139;45.626;6.850;2023-02-22T09:39:11;81688.06;;;8.90;43.04
64711;BME280;51139;45.626;6.850;2023-02-22T09:45:06;81682.31;;;9.78;39.80
64711;BME280;51139;45.626;6.850;2023-02-22T09:47:51;81672.28;;;9.67;38.90
64711;BME280;51139;45.626;6.850;2023-02-22T09:50:39;81679.13;;;9.80;42.17
64711;BME280;51139;45.626;6.850;2023-02-22T09:53:32;81688.72;;;8.81;46.93
64711;BME280;51139;45.626;6.850;2023-02-22T09:56:09;81683.44;;;7.73;46.13
64711;BME280;51139;45.626;6.850;2023-02-22T09:58:39;81677.69;;;7.67;48.84
64711;BME280;51139;45.626;6.850;2023-02-22T10:03:48;81683.59;;;8.38;49.72
64711;BME280;51139;45.626;6.850;2023-02-22T10:06:18;81685.72;;;8.67;45.36
64711;BME280;51139;45.626;6.850;2023-02-22T10:08:45;81683.66;;;7.85;49.20
64711;BME280;51139;45.626;6.850;2023-02-22T10:16:53;81683.06;;;8.94;47.20
64711;BME280;51139;45.626;6.850;2023-02-22T10:24:27;81683.72;;;6.48;47.91
64711;BME280;51139;45.626;6.850;2023-02-22T10:26:56;81689.59;;;7.33;49.30
64711;BME280;51139;45.626;6.850;2023-02-22T10:29:39;81681.72;;;7.85;50.17
64711;BME280;51139;45.626;6.850;2023-02-22T10:32:13;81680.03;;;7.63;49.51
64711;BME280;51139;45.626;6.850;2023-02-22T10:34:43;81676.38;;;7.15;50.10
64711;BME280;51139;45.626;6.850;2023-02-22T10:40:15;81683.13;;;7.86;48.09
64711;BME280;51139;45.626;6.850;2023-02-22T10:42:47;81682.97;;;7.67;49.14
64711;BME280;51139;45.626;6.850;2023-02-22T10:45:23;81679.31;;;7.62;48.27
64711;BME280;51139;45.626;6.850;2023-02-22T10:47:49;81676.19;;;8.09;50.46
64711;BME280;51139;45.626;6.850;2023-02-22T10:50:15;81677.50;;;8.17;48.19
64711;BME280;51139;45.626;6.850;2023-02-22T10:52:41;81679.53;;;7.92;46.96
64711;BME280;51139;45.626;6.850;2023-02-22T10:55:12;81677.97;;;8.06;47.66
64711;BME280;51139;45.626;6.850;2023-02-22T10:57:37;81672.03;;;7.70;49.87
64711;BME280;51139;45.626;6.850;2023-02-22T11:02:57;81669.53;;;8.08;49.29
64711;BME280;51139;45.626;6.850;2023-02-22T11:05:36;81665.16;;;8.20;49.05
64711;BME280;51139;45.626;6.850;2023-02-22T11:10:47;81664.03;;;7.78;49.70
64711;BME280;51139;45.626;6.850;2023-02-22T11:13:32;81662.28;;;6.77;51.26
64711;BME280;51139;45.626;6.850;2023-02-22T11:16:18;81655.19;;;6.88;50.81
64711;BME280;51139;45.626;6.850;2023-02-22T11:18:44;81657.34;;;7.24;52.40
64711;BME280;51139;45.626;6.850;2023-02-22T11:21:11;81657.06;;;7.55;49.77
64711;BME280;51139;45.626;6.850;2023-02-22T11:23:40;81651.41;;;7.41;51.56
64711;BME280;51139;45.626;6.850;2023-02-22T11:26:15;81657.19;;;7.40;50.27
64711;BME280;51139;45.626;6.850;2023-02-22T11:28:45;81651.88;;;7.48;49.73
64711;BME280;51139;45.626;6.850;2023-02-22T11:31:23;81647.00;;;7.62;51.61
64711;BME280;51139;45.626;6.850;2023-02-22T11:33:55;81645.56;;;7.43;52.47
64711;BME280;51139;45.626;6.850;2023-02-22T11:36:37;81653.88;;;7.74;49.60
64711;BME280;51139;45.626;6.850;2023-02-22T11:39:27;81648.44;;;7.90;50.34
64711;BME280;51139;45.626;6.850;2023-02-22T11:41:56;81641.16;;;7.81;52.14
64711;BME280;51139;45.626;6.850;2023-02-22T11:46:48;81635.66;;;7.34;50.12
64711;BME280;51139;45.626;6.850;2023-02-22T11:49:15;81633.97;;;6.85;57.46
64711;BME280;51139;45.626;6.850;2023-02-22T12:00:48;81622.56;;;7.43;53.07
64711;BME280;51139;45.626;6.850;2023-02-22T12:03:31;81624.59;;;7.35;55.81
64711;BME280;51139;45.626;6.850;2023-02-22T12:09:13;81628.94;;;6.80;67.54
64711;BME280;51139;45.626;6.850;2023-02-22T12:15:02;81622.03;;;6.59;58.85
64711;BME280;51139;45.626;6.850;2023-02-22T12:20:24;81619.75;;;6.63;64.72
64711;BME280;51139;45.626;6.850;2023-02-22T12:26:09;81617.38;;;7.53;56.58
64711;BME280;51139;45.626;6.850;2023-02-22T12:28:40;81620.34;;;8.02;48.83
64711;BME280;51139;45.626;6.850;2023-02-22T12:33:52;81617.63;;;8.38;47.46
64711;BME280;51139;45.626;6.850;2023-02-22T12:36:21;81611.69;;;8.20;46.65
64711;BME280;51139;45.626;6.850;2023-02-22T12:38:59;81616.66;;;8.15;46.63
64711;BME280;51139;45.626;6.850;2023-02-22T12:41:35;81611.91;;;8.31;47.31
64711;BME280;51139;45.626;6.850;2023-02-22T12:44:08;81612.41;;;8.47;47.71
64711;BME280;51139;45.626;6.850;2023-02-22T12:46:42;81617.19;;;8.59;48.08
64711;BME280;51139;45.626;6.850;2023-02-22T12:51:59;81605.13;;;8.38;47.62
64711;BME280;51139;45.626;6.850;2023-02-22T12:57:10;81620.50;;;8.50;45.98
64711;BME280;51139;45.626;6.850;2023-02-22T12:59:50;81612.88;;;8.36;46.98
64711;BME280;51139;45.626;6.850;2023-02-22T13:02:39;81609.13;;;8.57;45.21
64711;BME280;51139;45.626;6.850;2023-02-22T13:05:16;81609.94;;;8.32;45.75
64711;BME280;51139;45.626;6.850;2023-02-22T13:13:23;81614.63;;;7.96;46.17
64711;BME280;51139;45.626;6.850;2023-02-22T13:16:21;81619.16;;;7.51;48.62
64711;BME280;51139;45.626;6.850;2023-02-22T13:19:02;81620.47;;;7.42;50.00
64711;BME280;51139;45.626;6.850;2023-02-22T13:24:27;81617.63;;;7.30;51.13
64711;BME280;51139;45.626;6.850;2023-02-22T13:27:02;81622.63;;;7.00;51.86
64711;BME280;51139;45.626;6.850;2023-02-22T13:29:52;81630.69;;;7.38;51.58
64711;BME280;51139;45.626;6.850;2023-02-22T13:43:37;81628.66;;;7.11;53.76
64711;BME280;51139;45.626;6.850;2023-02-22T13:49:13;81632.06;;;7.04;54.13
64711;BME280;51139;45.626;6.850;2023-02-22T13:51:50;81636.06;;;7.30;53.34
64711;BME280;51139;45.626;6.850;2023-02-22T13:56:43;81635.00;;;6.65;56.60
64711;BME280;51139;45.626;6.850;2023-02-22T13:59:31;81637.59;;;6.72;57.84
64711;BME280;51139;45.626;6.850;2023-02-22T14:01:59;81638.84;;;6.38;61.25
64711;BME280;51139;45.626;6.850;2023-02-22T14:07:00;81639.78;;;6.84;61.66
64711;BME280;51139;45.626;6.850;2023-02-22T14:09:48;81644.69;;;6.29;65.06
64711;BME280;51139;45.626;6.850;2023-02-22T14:17:41;81634.94;;;5.32;76.91
64711;BME280;51139;45.626;6.850;2023-02-22T14:22:40;81635.53;;;4.92;82.93
64711;BME280;51139;45.626;6.850;2023-02-22T14:25:33;81642.88;;;5.01;83.29
64711;BME280;51139;45.626;6.850;2023-02-22T14:28:02;81633.19;;;5.76;78.95
64711;BME280;51139;45.626;6.850;2023-02-22T14:30:31;81640.25;;;5.09;81.19
64711;BME280;51139;45.626;6.850;2023-02-22T14:32:57;81632.44;;;5.42;81.02
64711;BME280;51139;45.626;6.850;2023-02-22T14:35:29;81633.72;;;5.33;80.46
64711;BME280;51139;45.626;6.850;2023-02-22T14:37:59;81634.66;;;5.05;82.25
64711;BME280;51139;45.626;6.850;2023-02-22T14:40:28;81636.31;;;5.82;79.15
64711;BME280;51139;45.626;6.850;2023-02-22T14:45:29;81637.69;;;6.32;73.75
64711;BME280;51139;45.626;6.850;2023-02-22T14:53:02;81637.16;;;5.92;78.18
64711;BME280;51139;45.626;6.850;2023-02-22T14:55:32;81639.34;;;5.78;78.56
64711;BME280;51139;45.626;6.850;2023-02-22T14:58:12;81636.63;;;5.53;80.50
64711;BME280;51139;45.626;6.850;2023-02-22T15:00:45;81638.88;;;5.97;77.93
64711;BME280;51139;45.626;6.850;2023-02-22T15:03:25;81633.50;;;5.88;77.91
64711;BME280;51139;45.626;6.850;2023-02-22T15:06:20;81635.81;;;5.83;78.68
64711;BME280;51139;45.626;6.850;2023-02-22T15:08:47;81634.44;;;5.67;79.70
64711;BME280;51139;45.626;6.850;2023-02-22T15:11:25;81631.16;;;5.66;80.34
64711;BME280;51139;45.626;6.850;2023-02-22T15:13:55;81634.50;;;6.00;80.32
64711;BME280;51139;45.626;6.850;2023-02-22T15:16:22;81634.97;;;6.14;79.29
64711;BME280;51139;45.626;6.850;2023-02-22T15:18:53;81631.72;;;5.57;82.07
64711;BME280;51139;45.626;6.850;2023-02-22T15:21:22;81629.59;;;5.63;81.56
64711;BME280;51139;45.626;6.850;2023-02-22T15:23:54;81620.84;;;5.94;79.43
64711;BME280;51139;45.626;6.850;2023-02-22T15:26:35;81622.00;;;5.75;81.01
64711;BME280;51139;45.626;6.850;2023-02-22T15:29:08;81629.94;;;6.01;80.88
64711;BME280;51139;45.626;6.850;2023-02-22T15:31:36;81624.22;;;5.46;87.99
64711;BME280;51139;45.626;6.850;2023-02-22T15:36:45;81626.28;;;4.83;100.00
64711;BME280;51139;45.626;6.850;2023-02-22T15:39:40;81625.59;;;4.82;100.00
64711;BME280;51139;45.626;6.850;2023-02-22T15:42:09;81633.13;;;4.78;100.00
64711;BME280;51139;45.626;6.850;2023-02-22T15:44:40;81628.31;;;5.23;98.00
64711;BME280;51139;45.626;6.850;2023-02-22T15:47:18;81626.13;;;5.53;93.88
64711;BME280;51139;45.626;6.850;2023-02-22T15:49:43;81628.66;;;5.20;97.00